KBEC

Details ICAO KBEC (BEC)
Name Beech Factory
Region United States
Timezone America/Chicago (UTC-6.0)
Plans Departing 19
Arriving 0
Stats Elevation 1,408 ft / 429 m (AMSL)
Location 37.694475° -97.214988°
Runways 1
Magnetic Variation 3.518° E
Sunrise 2017-12-16 13:39:02 UTC / 2017-12-16 07:39:02 Local
Sunset 2017-12-16 23:12:58 UTC / 2017-12-16 17:12:58 Local
Advertisement - Login to hide

Runways

ID Width Length Bearing (true) Bearing (mag) Surface Threshold Offset Overrun Length
18 98 ft / 30 m 8,016 ft / 2,443 m 190.48° 186.96° Concrete 0 ft / 0 m 0 ft / 0 m
36 98 ft / 30 m 8,016 ft / 2,443 m 10.47° 6.95° Concrete 0 ft / 0 m 0 ft / 0 m

Map

Weather


0- 5 10 15 20 25 30 35+ Temperature / ° C

Clouds and Precipitation
Forecast for 2017-12-16 18:00 UTC. Updated 2 hours ago

Ground ~20,000 ft ~40,000 ft Winds

METAR

KBEC 161655Z AUTO 19016G20KT 10SM CLR 09/M03 A2990 RMK AO2 T00931031

TAF

Not found

Frequencies

Unicom 122.70 MHz CTAF
Clearance 125.00 MHz WICHITA CLNC DEL
Tower 126.80 MHz TWR
Unicom 122.95 MHz UNICOM
Ground 121.70 MHz GND
Approach 134.80 MHz WICHITA APP/DEP
Warning: Do not use this data for real-world aviation or navigation. No guarantee of current accuracy is given.